createdAt,value
2019-02-05T00:01:09.000Z,35.675
2019-02-05T00:11:09.000Z,35.934
2019-02-05T00:21:09.000Z,36.14
2019-02-05T00:31:09.000Z,36.191
2019-02-05T00:41:09.000Z,36.364
2019-02-05T00:51:09.000Z,36.513
2019-02-05T01:01:09.000Z,36.773
2019-02-05T01:11:09.000Z,36.843
2019-02-05T01:21:09.000Z,36.939
2019-02-05T01:31:10.000Z,37.054
2019-02-05T01:41:10.000Z,37.283
2019-02-05T01:51:10.000Z,37.574
2019-02-05T02:01:10.000Z,37.469
2019-02-05T02:11:10.000Z,37.598
2019-02-05T02:21:10.000Z,37.791
2019-02-05T02:31:10.000Z,37.941
2019-02-05T02:41:10.000Z,38.035
2019-02-05T02:51:11.000Z,38.007
2019-02-05T03:01:10.000Z,38.133
2019-02-05T03:11:10.000Z,38.228
2019-02-05T03:21:12.000Z,38.311
2019-02-05T03:31:10.000Z,38.559
2019-02-05T03:41:12.000Z,38.622
2019-02-05T03:51:10.000Z,38.869
2019-02-05T04:01:10.000Z,38.589
2019-02-05T04:11:10.000Z,38.674
2019-02-05T04:31:10.000Z,38.93
2019-02-05T04:41:10.000Z,39.574
2019-02-05T04:51:10.000Z,39.392
2019-02-05T05:01:10.000Z,39.728
2019-02-05T05:11:10.000Z,38.789
2019-02-05T05:21:10.000Z,39.026
2019-02-05T05:31:10.000Z,39.362
2019-02-05T05:41:10.000Z,39.599
2019-02-05T05:51:10.000Z,39.651
2019-02-05T06:01:10.000Z,39.659
2019-02-05T06:11:10.000Z,39.864
2019-02-05T06:21:10.000Z,40.013
2019-02-05T06:31:10.000Z,39.891
2019-02-05T06:41:10.000Z,39.844
2019-02-05T06:51:10.000Z,39.777
2019-02-05T07:01:10.000Z,39.905
2019-02-05T07:11:10.000Z,39.962
2019-02-05T07:21:10.000Z,39.858
2019-02-05T07:31:10.000Z,40.578
2019-02-05T07:41:10.000Z,41.267
2019-02-05T07:51:10.000Z,41.593
2019-02-05T08:01:10.000Z,41.767
2019-02-05T08:11:10.000Z,41.832
2019-02-05T08:21:10.000Z,42.004
2019-02-05T08:31:10.000Z,42.123
2019-02-05T08:41:10.000Z,42.287
2019-02-05T08:51:10.000Z,42.352
2019-02-05T09:01:10.000Z,42.34
2019-02-05T09:11:11.000Z,42.782
2019-02-05T09:21:10.000Z,41.925
2019-02-05T09:31:10.000Z,42.066
2019-02-05T09:41:10.000Z,42.262
2019-02-05T09:51:10.000Z,42.277
2019-02-05T10:01:11.000Z,42
2019-02-05T10:11:11.000Z,41.881
2019-02-05T10:21:11.000Z,41.729
2019-02-05T10:31:11.000Z,41.759
2019-02-05T10:41:11.000Z,41.921
2019-02-05T10:51:11.000Z,42.176
2019-02-05T11:01:11.000Z,42.2
2019-02-05T11:11:11.000Z,42.123
2019-02-05T11:21:11.000Z,42.142
2019-02-05T11:31:11.000Z,42.204
2019-02-05T11:41:11.000Z,42.211
2019-02-05T11:51:11.000Z,42.231
2019-02-05T12:01:11.000Z,42.196
2019-02-05T12:11:11.000Z,42.195
2019-02-05T12:21:11.000Z,42.126
2019-02-05T12:31:11.000Z,42.114
2019-02-05T12:41:11.000Z,42.057
2019-02-05T12:51:11.000Z,42.024
2019-02-05T13:01:11.000Z,42.12
2019-02-05T13:11:11.000Z,42.019
2019-02-05T13:21:11.000Z,41.985
2019-02-05T13:31:11.000Z,41.994
2019-02-05T13:41:11.000Z,42.046
2019-02-05T13:51:11.000Z,42
2019-02-05T14:01:11.000Z,42.01
2019-02-05T14:11:11.000Z,42.009
2019-02-05T14:21:11.000Z,42.039
2019-02-05T14:31:11.000Z,42.016
2019-02-05T14:41:12.000Z,41.981
2019-02-05T14:51:11.000Z,42.066
2019-02-05T15:01:11.000Z,41.979
2019-02-05T15:11:11.000Z,42.05
2019-02-05T15:21:11.000Z,42.05
2019-02-05T15:31:11.000Z,42.027
2019-02-05T15:41:11.000Z,42.047
2019-02-05T15:51:12.000Z,42.088
2019-02-05T16:01:11.000Z,42.13
2019-02-05T16:11:11.000Z,42.085
2019-02-05T16:21:11.000Z,42.138
2019-02-05T16:31:11.000Z,42.072
2019-02-05T16:41:11.000Z,42.167
2019-02-05T16:51:11.000Z,42.081
2019-02-05T17:01:11.000Z,42.08
2019-02-05T17:11:11.000Z,42.189
2019-02-05T17:21:11.000Z,42.433
2019-02-05T17:31:11.000Z,42.543
2019-02-05T17:41:11.000Z,42.596
2019-02-05T17:51:11.000Z,42.652
2019-02-05T18:01:11.000Z,42.631
2019-02-05T18:11:12.000Z,42.784
2019-02-05T18:21:11.000Z,42.859
2019-02-05T18:31:12.000Z,42.706
2019-02-05T18:41:12.000Z,42.628
2019-02-05T18:51:12.000Z,42.647
2019-02-05T19:01:12.000Z,42.623
2019-02-05T19:11:12.000Z,42.664
2019-02-05T19:21:12.000Z,42.684
2019-02-05T19:31:12.000Z,42.563
2019-02-05T19:41:12.000Z,42.647
2019-02-05T19:51:12.000Z,42.635
2019-02-05T20:01:12.000Z,42.601
2019-02-05T20:11:12.000Z,39.658
2019-02-05T20:21:12.000Z,42.767
2019-02-05T20:31:12.000Z,42.492
2019-02-05T20:51:12.000Z,45.114
2019-02-05T21:01:12.000Z,45.202
2019-02-05T21:11:12.000Z,45.299
2019-02-05T21:21:12.000Z,45.439
2019-02-05T21:31:12.000Z,45.539
2019-02-05T21:41:13.000Z,46.037
2019-02-05T21:51:14.000Z,46.451
2019-02-05T22:01:15.000Z,46.451
2019-02-05T22:11:12.000Z,46.398
2019-02-05T22:21:12.000Z,46.314
2019-02-05T22:31:12.000Z,45.835
2019-02-05T22:41:12.000Z,46.252
2019-02-05T22:51:12.000Z,46.414
2019-02-05T23:01:12.000Z,46.293
2019-02-05T23:11:12.000Z,46.53
2019-02-05T23:21:12.000Z,46.372
2019-02-05T23:31:12.000Z,46.259
2019-02-05T23:41:12.000Z,46.213
2019-02-05T23:51:13.000Z,46.176
